Fairbanks, AK (99775)

12:29 AM AKDT on September 30, 2016 (GMT -0800)
Forrest Ridge | | Change Station

Elev 822 ft 64.82 °N, 147.97 °W | Updated 21 seconds ago

Scattered Clouds
Scattered Clouds
35.1 °F
Feels Like 35 °F
N
0.0
Wind Variable Wind from NW

Today
High -- | Low -- °F
--% Chance of Precip.
Yesterday
High -- | Low -- °F
Precip. -- in
Pressure 30.60 in
Visibility 10.0 miles
Clouds Scattered Clouds 20000 ft
Windchill 35 °F
Dew Point 33 °F
Humidity 93%
Rainfall 0.00 in
Snow Depth Not available.
8:00 AM 7:20 PM
Waning Crescent, 0% visible
METAR PAFA 300753Z 00000KT 10SM SCT200 01/M01 A3057 RMK AO2 SLP361 T00061006 $
Pressure 30.60 in
Visibility 10.0 miles
Clouds Scattered Clouds 20000 ft
Windchill 35 °F
Dew Point 33 °F
Humidity 93%
Rainfall 0.00 in
Snow Depth Not available.
8:00 AM 7:20 PM
Waning Crescent, 0% visible
METAR PAFA 300753Z 00000KT 10SM SCT200 01/M01 A3057 RMK AO2 SLP361 T00061006 $

10-Day Weather Forecast

Almanac

Astronomy

Sep. 30, 2016 Rise Set
Actual Time
Civil Twilight
Nautical Twilight
Astronomical Twilight
Moon
Length of Visible Light
Length of Day
Tomorrow will be .
, % of the Moon is Illuminated

Today's Extremes

State Highs State Lows

Community

WunderPhotos

Upload Photos

1,942,668 photos uploaded!

WunderBlog® & News

Nearby

Air Quality

  Air Quality AQ Index Pollutant
Not available.

Snow Depth

Station Depth Elevation

Earthquake Activity

City Distance Mag. Time & Date
Minimum magnitude displayed is 2.5.

Coastal Water Temperatures

Place Temperature

Stations

Nearby Weather Stations

Station Location Temp. Windchill Dew Point Humidity Wind Precip. Elev Updated Type
                   

Watches & Warnings

There are currently no watches in effect.